Sunday, December 21, 2014
01:08 UTC
  |  Log In   |  Register Free
Airport Search:

Raleigh-Durham International Airport
(KRDU)

Airport information sponsored by:
Landmark Aviation - RDU at Raleigh-Durham International (KRDU), Raleigh/Durham, NC
FAA data valid effective November 13, 2014 - January 08, 2015 (unless otherwise noted).

 
 
 
 
 
 
 
 
 
 
 
 
 
 

Current Aviation Weather for Raleigh-Durham International Airport (KRDU)

The most recent METAR observation for KRDU was updated at: 2120
METAR Summary (Translated METAR)
KRDU
182051Z 00000KT 10SM BKN085 BKN250 09/M06 A3009 RMK AO2 SLP189 T00941061 56012
KIGX
182056Z AUTO 29003KT 10SM OVC080 09/M03 A3008 RMK AO2 SLP187 T00941033 56010
(14 nm NW from KRDU)
KTTA
182115Z AUTO 27003KT 10SM CLR 11/M04 A3007 RMK AO2 T01121038
(23.4 nm SW from KRDU)
TAF Summary (Translated TAF)
KRDU
202136Z 2022/2118 03005KT 4SM BR OVC007 TEMPO 2022/2024 P6SM NSW BKN015 OVC040 FM210000 04003KT P6SM SCT015 BKN050 TEMPO 2109/2112 1/2SM FG FM211400 04003KT P6SM OVC050
  Airport Weather Conditions for KRDU

 Current Weather at RDU
38° F
Fog/Mist
North winds at 0.0 mph
RDU NOAA Radar

Pressure: 30.28 in
Humidity: 86%
Wind: Calm
Dew Point: 34.0°F
Visibility: 5.00 mi


Airport Weather Forecast for KRDU

Translated METAR and TAF for KRDU
Translated METAR for KRDU (0109 UTC 21 December 2014)
found at http://aviationweather.gov/adds/metars/
 
METAR text: KRDU 210051Z 11003KT 5SM BR BKN008 OVC050 03/01 A3028 RMK AO2 SLP256 T00280011
Conditions at: KRDU (RALEIGH/DURHAM , NC, US) observed 0051 UTC 21 December 2014
Temperature: 2.8°C (37°F)
Dewpoint: 1.1°C (34°F) [RH = 89%]
Pressure (altimeter): 30.28 inches Hg (1025.5 mb)
[Sea-level pressure: 1025.6 mb]
Winds: from the ESE (110 degrees) at 3 MPH (3 knots; 1.6 m/s)
Visibility: 5 miles (8 km)
Ceiling: 800 feet AGL
Clouds: broken clouds at 800 feet AGL
overcast cloud deck at 5000 feet AGL
Weather: BR  (mist)
Translated TAF for KRDU
Forecast for: KRDU (RALEIGH/DURHAM , NC, US)
TAF Text: KRDU 202331Z 2100/2124 VRB03KT 5SM BR OVC008
Forecast period: 0000 to 0600 UTC 21 December 2014
Forecast type: FROM: standard forecast or significant change
Winds: variable direction winds at 3 MPH (3 knots; 1.6 m/s)
Visibility: 5 miles (8 km)
Ceiling: 800 feet AGL
Clouds: overcast cloud deck at 800 feet AGL
Weather: BR  (mist)
TAF Text: TEMPO 2102/2106 P6SM NSW SCT008 OVC035
Forecast period: 0200 to 0600 UTC 21 December 2014
Forecast type: TEMPORARY: The following changes expected for less than half the time period
Visibility: 6 or more miles (10+ km)
Ceiling: 3500 feet AGL
Clouds: scattered clouds at 800 feet AGL
overcast cloud deck at 3500 feet AGL
Weather: NSW  (no significant weather)
TAF Text: FM210600 00000KT 4SM BR BKN035
Forecast period: 0600 to 1400 UTC 21 December 2014
Forecast type: FROM: standard forecast or significant change
Winds: calm
Visibility: 4 miles (6 km)
Ceiling: 3500 feet AGL
Clouds: broken clouds at 3500 feet AGL
Weather: BR  (mist)
TAF Text: TEMPO 2109/2112 1/2SM FG BKN012
Forecast period: 0900 to 1200 UTC 21 December 2014
Forecast type: TEMPORARY: The following changes expected for less than half the time period
Visibility: 0.50 miles (0.80 km)
Ceiling: 1200 feet AGL
Clouds: broken clouds at 1200 feet AGL
Weather: FG  (fog)
TAF Text: FM211400 06004KT P6SM BKN035
Forecast period: 1400 UTC 21 December 2014 to 0000 UTC 22 December 2014
Forecast type: FROM: standard forecast or significant change
Winds: from the ENE (60 degrees) at 5 MPH (4 knots; 2.1 m/s)
Visibility: 6 or more miles (10+ km)
Ceiling: 3500 feet AGL
Clouds: broken clouds at 3500 feet AGL
Weather: no significant weather forecast for this period

Find All Airport Services Find A Hotel Find A Rental Car Find A Golf Course Find A Restaurant $100 Hamburger



FBO's on the Field
FBO Company Facility Photos Services Transportation Aviation Fuel Prices: Prices include tax
Catering Weather Repair Courtesy Rental Type 100LL JetA JetA+ MOGAS 8087
 
Landmark Aviation - RDU

Landmark Aviation - RDU logo
Currently rated 4.4 by 2 people
FS:
Last Updated: Dec-19
Login to update fuel prices
SS:
Contact Landmark Aviation - RDUMore FBO Information
 
TAC Air - RDU

Currently rated 1.8 by 3 people
FS:Avfuel
Last Updated: Dec-09
Login to update fuel prices
SS:
Contact TAC Air - RDUMore FBO Information
 
Add another FBO Facility Photos Catering Weather Repair Courtesy Rental Type 100LL JetA JetA+ MOGAS 8087
Services Transportation Aviation Fuel Prices: Prices include tax


model-print
model-print
model-print
model-print